sensor_id;sensor_type;location;lat;lon;timestamp;P1;durP1;ratioP1;P2;durP2;ratioP2
52888;SDS011;41413;52.770;6.892;2023-07-31T00:01:31;52.20;;;50.03;;
52888;SDS011;41413;52.770;6.892;2023-07-31T00:03:58;67.85;;;65.32;;
52888;SDS011;41413;52.770;6.892;2023-07-31T00:06:25;59.35;;;56.95;;
52888;SDS011;41413;52.770;6.892;2023-07-31T00:08:51;55.50;;;53.33;;
52888;SDS011;41413;52.770;6.892;2023-07-31T00:11:18;54.35;;;52.15;;
52888;SDS011;41413;52.770;6.892;2023-07-31T00:13:45;61.15;;;58.80;;
52888;SDS011;41413;52.770;6.892;2023-07-31T00:16:12;57.22;;;55.08;;
52888;SDS011;41413;52.770;6.892;2023-07-31T00:18:39;56.50;;;54.17;;
52888;SDS011;41413;52.770;6.892;2023-07-31T00:21:05;56.83;;;54.65;;
52888;SDS011;41413;52.770;6.892;2023-07-31T00:23:32;58.60;;;56.20;;
52888;SDS011;41413;52.770;6.892;2023-07-31T00:25:59;54.85;;;52.47;;
52888;SDS011;41413;52.770;6.892;2023-07-31T00:28:26;62.70;;;60.15;;
52888;SDS011;41413;52.770;6.892;2023-07-31T00:30:55;60.42;;;58.03;;
52888;SDS011;41413;52.770;6.892;2023-07-31T00:33:21;55.10;;;52.97;;
52888;SDS011;41413;52.770;6.892;2023-07-31T00:35:48;59.55;;;57.28;;
52888;SDS011;41413;52.770;6.892;2023-07-31T00:38:15;60.05;;;57.45;;
52888;SDS011;41413;52.770;6.892;2023-07-31T00:40:42;57.15;;;54.97;;
52888;SDS011;41413;52.770;6.892;2023-07-31T00:43:11;53.25;;;51.05;;
52888;SDS011;41413;52.770;6.892;2023-07-31T00:45:38;63.35;;;61.00;;
52888;SDS011;41413;52.770;6.892;2023-07-31T00:48:05;54.40;;;52.05;;
52888;SDS011;41413;52.770;6.892;2023-07-31T00:50:33;55.80;;;53.70;;
52888;SDS011;41413;52.770;6.892;2023-07-31T00:53:00;52.65;;;50.63;;
52888;SDS011;41413;52.770;6.892;2023-07-31T00:55:28;59.40;;;57.13;;
52888;SDS011;41413;52.770;6.892;2023-07-31T00:57:56;60.58;;;58.28;;
52888;SDS011;41413;52.770;6.892;2023-07-31T01:00:22;59.50;;;57.20;;
52888;SDS011;41413;52.770;6.892;2023-07-31T01:02:50;56.22;;;54.00;;
52888;SDS011;41413;52.770;6.892;2023-07-31T01:05:24;52.70;;;50.63;;
52888;SDS011;41413;52.770;6.892;2023-07-31T01:08:06;52.92;;;50.83;;
52888;SDS011;41413;52.770;6.892;2023-07-31T01:10:49;61.03;;;58.60;;
52888;SDS011;41413;52.770;6.892;2023-07-31T01:13:21;62.70;;;60.25;;
52888;SDS011;41413;52.770;6.892;2023-07-31T01:15:47;60.08;;;57.78;;
52888;SDS011;41413;52.770;6.892;2023-07-31T01:18:14;59.40;;;57.10;;
52888;SDS011;41413;52.770;6.892;2023-07-31T01:20:42;66.43;;;64.00;;
52888;SDS011;41413;52.770;6.892;2023-07-31T01:28:28;50.17;;;48.25;;
52888;SDS011;41413;52.770;6.892;2023-07-31T01:31:07;60.60;;;58.35;;
52888;SDS011;41413;52.770;6.892;2023-07-31T01:33:38;59.10;;;56.90;;
52888;SDS011;41413;52.770;6.892;2023-07-31T01:36:05;62.42;;;60.13;;
52888;SDS011;41413;52.770;6.892;2023-07-31T01:38:33;58.65;;;56.47;;
52888;SDS011;41413;52.770;6.892;2023-07-31T01:41:00;54.00;;;51.95;;
52888;SDS011;41413;52.770;6.892;2023-07-31T01:43:27;60.42;;;58.13;;
52888;SDS011;41413;52.770;6.892;2023-07-31T01:45:53;57.75;;;55.67;;
52888;SDS011;41413;52.770;6.892;2023-07-31T01:48:20;56.55;;;54.35;;
52888;SDS011;41413;52.770;6.892;2023-07-31T01:50:47;52.38;;;50.45;;
52888;SDS011;41413;52.770;6.892;2023-07-31T01:53:14;53.72;;;51.78;;
52888;SDS011;41413;52.770;6.892;2023-07-31T01:55:41;53.42;;;51.38;;
52888;SDS011;41413;52.770;6.892;2023-07-31T01:58:07;53.10;;;51.10;;
52888;SDS011;41413;52.770;6.892;2023-07-31T02:00:34;55.92;;;53.90;;
52888;SDS011;41413;52.770;6.892;2023-07-31T02:03:01;53.25;;;51.28;;
52888;SDS011;41413;52.770;6.892;2023-07-31T02:05:28;52.40;;;50.28;;
52888;SDS011;41413;52.770;6.892;2023-07-31T02:07:55;71.78;;;69.05;;
52888;SDS011;41413;52.770;6.892;2023-07-31T02:10:21;49.95;;;48.13;;
52888;SDS011;41413;52.770;6.892;2023-07-31T02:12:48;55.45;;;53.42;;
52888;SDS011;41413;52.770;6.892;2023-07-31T02:15:15;62.28;;;59.88;;
52888;SDS011;41413;52.770;6.892;2023-07-31T02:17:42;56.80;;;54.58;;
52888;SDS011;41413;52.770;6.892;2023-07-31T02:20:08;57.35;;;55.20;;
52888;SDS011;41413;52.770;6.892;2023-07-31T02:22:35;57.53;;;55.38;;
52888;SDS011;41413;52.770;6.892;2023-07-31T02:25:02;63.65;;;61.28;;
52888;SDS011;41413;52.770;6.892;2023-07-31T02:27:29;55.53;;;53.40;;
52888;SDS011;41413;52.770;6.892;2023-07-31T02:29:56;60.58;;;58.28;;
52888;SDS011;41413;52.770;6.892;2023-07-31T02:32:25;62.83;;;60.50;;
52888;SDS011;41413;52.770;6.892;2023-07-31T02:34:52;60.72;;;58.45;;
52888;SDS011;41413;52.770;6.892;2023-07-31T02:37:18;62.03;;;59.50;;
52888;SDS011;41413;52.770;6.892;2023-07-31T02:39:45;60.65;;;58.28;;
52888;SDS011;41413;52.770;6.892;2023-07-31T02:42:12;66.88;;;64.15;;
52888;SDS011;41413;52.770;6.892;2023-07-31T02:44:39;70.97;;;68.35;;
52888;SDS011;41413;52.770;6.892;2023-07-31T02:47:06;58.28;;;56.08;;
52888;SDS011;41413;52.770;6.892;2023-07-31T02:49:33;61.33;;;59.03;;
52888;SDS011;41413;52.770;6.892;2023-07-31T02:52:00;54.50;;;52.17;;
52888;SDS011;41413;52.770;6.892;2023-07-31T02:54:26;60.50;;;58.30;;
52888;SDS011;41413;52.770;6.892;2023-07-31T02:56:53;57.58;;;55.40;;
52888;SDS011;41413;52.770;6.892;2023-07-31T02:59:20;58.03;;;55.80;;
52888;SDS011;41413;52.770;6.892;2023-07-31T03:01:47;60.53;;;58.33;;
52888;SDS011;41413;52.770;6.892;2023-07-31T03:04:14;52.88;;;50.92;;
52888;SDS011;41413;52.770;6.892;2023-07-31T03:06:43;65.35;;;62.92;;
52888;SDS011;41413;52.770;6.892;2023-07-31T03:09:10;73.50;;;70.72;;
52888;SDS011;41413;52.770;6.892;2023-07-31T03:11:37;72.13;;;69.40;;
52888;SDS011;41413;52.770;6.892;2023-07-31T03:14:03;66.53;;;64.13;;
52888;SDS011;41413;52.770;6.892;2023-07-31T03:16:30;57.38;;;55.13;;
52888;SDS011;41413;52.770;6.892;2023-07-31T03:18:57;58.58;;;56.38;;
52888;SDS011;41413;52.770;6.892;2023-07-31T03:21:24;62.65;;;60.00;;
52888;SDS011;41413;52.770;6.892;2023-07-31T03:23:50;55.20;;;53.10;;
52888;SDS011;41413;52.770;6.892;2023-07-31T03:26:17;62.15;;;59.85;;
52888;SDS011;41413;52.770;6.892;2023-07-31T03:28:44;69.32;;;66.63;;
52888;SDS011;41413;52.770;6.892;2023-07-31T03:31:11;62.67;;;60.40;;
52888;SDS011;41413;52.770;6.892;2023-07-31T03:33:38;59.22;;;56.90;;
52888;SDS011;41413;52.770;6.892;2023-07-31T03:36:04;59.40;;;57.15;;
52888;SDS011;41413;52.770;6.892;2023-07-31T03:38:32;62.97;;;60.58;;
52888;SDS011;41413;52.770;6.892;2023-07-31T03:40:59;60.97;;;58.53;;
52888;SDS011;41413;52.770;6.892;2023-07-31T03:43:26;67.75;;;65.25;;
52888;SDS011;41413;52.770;6.892;2023-07-31T03:45:52;65.15;;;62.70;;
52888;SDS011;41413;52.770;6.892;2023-07-31T03:48:19;63.53;;;61.15;;
52888;SDS011;41413;52.770;6.892;2023-07-31T03:50:46;65.65;;;63.20;;
52888;SDS011;41413;52.770;6.892;2023-07-31T03:53:13;64.93;;;62.45;;
52888;SDS011;41413;52.770;6.892;2023-07-31T03:55:40;65.55;;;63.05;;
52888;SDS011;41413;52.770;6.892;2023-07-31T03:58:07;65.57;;;63.15;;
52888;SDS011;41413;52.770;6.892;2023-07-31T04:00:34;64.05;;;61.58;;
52888;SDS011;41413;52.770;6.892;2023-07-31T04:03:01;64.53;;;62.13;;
52888;SDS011;41413;52.770;6.892;2023-07-31T04:05:29;63.22;;;60.83;;
52888;SDS011;41413;52.770;6.892;2023-07-31T04:07:56;68.40;;;65.82;;
52888;SDS011;41413;52.770;6.892;2023-07-31T04:10:23;67.50;;;65.00;;
52888;SDS011;41413;52.770;6.892;2023-07-31T04:12:50;64.53;;;62.13;;
52888;SDS011;41413;52.770;6.892;2023-07-31T04:15:16;63.95;;;61.55;;
52888;SDS011;41413;52.770;6.892;2023-07-31T04:17:43;61.50;;;59.13;;
52888;SDS011;41413;52.770;6.892;2023-07-31T04:20:10;69.57;;;66.97;;
52888;SDS011;41413;52.770;6.892;2023-07-31T04:22:37;62.20;;;59.90;;
52888;SDS011;41413;52.770;6.892;2023-07-31T04:25:04;65.90;;;63.28;;
52888;SDS011;41413;52.770;6.892;2023-07-31T04:27:30;64.93;;;62.00;;
52888;SDS011;41413;52.770;6.892;2023-07-31T04:29:57;61.55;;;59.38;;
52888;SDS011;41413;52.770;6.892;2023-07-31T04:32:24;68.60;;;65.60;;
52888;SDS011;41413;52.770;6.892;2023-07-31T04:34:51;66.32;;;63.70;;
52888;SDS011;41413;52.770;6.892;2023-07-31T04:37:17;63.97;;;61.58;;
52888;SDS011;41413;52.770;6.892;2023-07-31T04:39:44;71.05;;;68.30;;
52888;SDS011;41413;52.770;6.892;2023-07-31T04:42:11;70.68;;;67.97;;
52888;SDS011;41413;52.770;6.892;2023-07-31T04:44:38;60.40;;;58.10;;
52888;SDS011;41413;52.770;6.892;2023-07-31T04:47:04;71.75;;;69.13;;
52888;SDS011;41413;52.770;6.892;2023-07-31T04:49:31;69.30;;;66.38;;
52888;SDS011;41413;52.770;6.892;2023-07-31T04:51:59;72.28;;;69.38;;
52888;SDS011;41413;52.770;6.892;2023-07-31T04:54:25;66.93;;;64.32;;
52888;SDS011;41413;52.770;6.892;2023-07-31T04:56:52;80.93;;;77.63;;
52888;SDS011;41413;52.770;6.892;2023-07-31T04:59:19;65.95;;;63.13;;
52888;SDS011;41413;52.770;6.892;2023-07-31T05:01:46;64.70;;;62.22;;
52888;SDS011;41413;52.770;6.892;2023-07-31T05:04:13;60.92;;;58.47;;
52888;SDS011;41413;52.770;6.892;2023-07-31T05:06:41;68.15;;;64.82;;
52888;SDS011;41413;52.770;6.892;2023-07-31T05:09:08;75.13;;;71.45;;
52888;SDS011;41413;52.770;6.892;2023-07-31T05:11:35;73.00;;;69.38;;
52888;SDS011;41413;52.770;6.892;2023-07-31T05:14:02;69.53;;;66.30;;
52888;SDS011;41413;52.770;6.892;2023-07-31T05:16:29;72.82;;;69.28;;
52888;SDS011;41413;52.770;6.892;2023-07-31T05:18:56;86.20;;;81.45;;
52888;SDS011;41413;52.770;6.892;2023-07-31T05:21:23;71.45;;;67.95;;
52888;SDS011;41413;52.770;6.892;2023-07-31T05:23:50;81.43;;;77.28;;
52888;SDS011;41413;52.770;6.892;2023-07-31T05:26:17;83.20;;;78.70;;
52888;SDS011;41413;52.770;6.892;2023-07-31T05:28:44;84.70;;;80.13;;
52888;SDS011;41413;52.770;6.892;2023-07-31T05:31:11;74.53;;;70.82;;
52888;SDS011;41413;52.770;6.892;2023-07-31T05:33:38;75.28;;;71.03;;
52888;SDS011;41413;52.770;6.892;2023-07-31T05:36:05;80.10;;;75.57;;
52888;SDS011;41413;52.770;6.892;2023-07-31T05:38:32;71.68;;;67.32;;
52888;SDS011;41413;52.770;6.892;2023-07-31T05:40:58;73.65;;;69.03;;
52888;SDS011;41413;52.770;6.892;2023-07-31T05:43:25;82.30;;;77.68;;
52888;SDS011;41413;52.770;6.892;2023-07-31T05:45:52;88.68;;;83.47;;
52888;SDS011;41413;52.770;6.892;2023-07-31T05:48:19;78.97;;;74.45;;
52888;SDS011;41413;52.770;6.892;2023-07-31T05:50:45;89.75;;;84.10;;
52888;SDS011;41413;52.770;6.892;2023-07-31T05:53:12;83.45;;;77.90;;
52888;SDS011;41413;52.770;6.892;2023-07-31T05:55:39;82.40;;;77.80;;
52888;SDS011;41413;52.770;6.892;2023-07-31T05:58:06;82.57;;;76.65;;
52888;SDS011;41413;52.770;6.892;2023-07-31T06:00:32;83.70;;;78.15;;
52888;SDS011;41413;52.770;6.892;2023-07-31T06:02:59;76.90;;;72.15;;
52888;SDS011;41413;52.770;6.892;2023-07-31T06:05:26;77.78;;;72.75;;
52888;SDS011;41413;52.770;6.892;2023-07-31T06:07:55;75.15;;;70.85;;
52888;SDS011;41413;52.770;6.892;2023-07-31T06:10:22;76.72;;;71.63;;
52888;SDS011;41413;52.770;6.892;2023-07-31T06:12:49;91.65;;;86.35;;
52888;SDS011;41413;52.770;6.892;2023-07-31T06:15:16;78.68;;;73.72;;
52888;SDS011;41413;52.770;6.892;2023-07-31T06:17:45;77.65;;;72.72;;
52888;SDS011;41413;52.770;6.892;2023-07-31T06:20:12;73.60;;;69.03;;
52888;SDS011;41413;52.770;6.892;2023-07-31T06:22:38;87.43;;;82.25;;
52888;SDS011;41413;52.770;6.892;2023-07-31T06:25:05;89.18;;;83.35;;
52888;SDS011;41413;52.770;6.892;2023-07-31T06:27:32;76.78;;;71.43;;
52888;SDS011;41413;52.770;6.892;2023-07-31T06:29:59;95.75;;;89.65;;
52888;SDS011;41413;52.770;6.892;2023-07-31T06:32:26;72.38;;;67.78;;
52888;SDS011;41413;52.770;6.892;2023-07-31T06:34:53;79.05;;;74.22;;
52888;SDS011;41413;52.770;6.892;2023-07-31T06:37:20;83.45;;;78.22;;
52888;SDS011;41413;52.770;6.892;2023-07-31T06:39:47;81.25;;;76.13;;
52888;SDS011;41413;52.770;6.892;2023-07-31T06:42:14;79.30;;;74.25;;
52888;SDS011;41413;52.770;6.892;2023-07-31T06:44:41;83.57;;;78.40;;
52888;SDS011;41413;52.770;6.892;2023-07-31T06:47:07;76.13;;;71.00;;
52888;SDS011;41413;52.770;6.892;2023-07-31T06:49:34;75.47;;;71.07;;
52888;SDS011;41413;52.770;6.892;2023-07-31T06:52:01;82.85;;;77.65;;
52888;SDS011;41413;52.770;6.892;2023-07-31T06:54:28;81.47;;;76.32;;
52888;SDS011;41413;52.770;6.892;2023-07-31T06:56:55;82.00;;;76.88;;
52888;SDS011;41413;52.770;6.892;2023-07-31T06:59:21;89.82;;;84.28;;
52888;SDS011;41413;52.770;6.892;2023-07-31T07:01:48;80.32;;;75.35;;
52888;SDS011;41413;52.770;6.892;2023-07-31T07:04:15;75.70;;;71.03;;
52888;SDS011;41413;52.770;6.892;2023-07-31T07:06:42;75.65;;;71.75;;
52888;SDS011;41413;52.770;6.892;2023-07-31T07:09:09;83.90;;;79.30;;
52888;SDS011;41413;52.770;6.892;2023-07-31T07:11:36;72.15;;;67.95;;
52888;SDS011;41413;52.770;6.892;2023-07-31T07:14:03;77.68;;;72.80;;
52888;SDS011;41413;52.770;6.892;2023-07-31T07:16:30;77.55;;;73.00;;
52888;SDS011;41413;52.770;6.892;2023-07-31T07:18:57;79.43;;;74.97;;
52888;SDS011;41413;52.770;6.892;2023-07-31T07:21:30;77.45;;;72.95;;
52888;SDS011;41413;52.770;6.892;2023-07-31T07:23:57;77.80;;;73.63;;
52888;SDS011;41413;52.770;6.892;2023-07-31T07:26:23;78.32;;;73.97;;
52888;SDS011;41413;52.770;6.892;2023-07-31T07:28:50;77.60;;;73.43;;
52888;SDS011;41413;52.770;6.892;2023-07-31T07:31:17;77.32;;;73.15;;
52888;SDS011;41413;52.770;6.892;2023-07-31T07:33:44;75.00;;;70.97;;
52888;SDS011;41413;52.770;6.892;2023-07-31T07:36:10;80.95;;;76.80;;
52888;SDS011;41413;52.770;6.892;2023-07-31T07:38:38;72.63;;;68.68;;
52888;SDS011;41413;52.770;6.892;2023-07-31T07:41:05;72.32;;;68.30;;
52888;SDS011;41413;52.770;6.892;2023-07-31T07:43:32;72.97;;;69.10;;
52888;SDS011;41413;52.770;6.892;2023-07-31T07:45:59;85.40;;;80.88;;
52888;SDS011;41413;52.770;6.892;2023-07-31T07:48:26;85.03;;;80.68;;
52888;SDS011;41413;52.770;6.892;2023-07-31T07:50:52;72.00;;;68.57;;
52888;SDS011;41413;52.770;6.892;2023-07-31T07:53:19;70.57;;;66.90;;
52888;SDS011;41413;52.770;6.892;2023-07-31T07:55:46;77.85;;;74.18;;
52888;SDS011;41413;52.770;6.892;2023-07-31T07:58:13;72.72;;;69.22;;
52888;SDS011;41413;52.770;6.892;2023-07-31T08:00:39;73.15;;;69.43;;
52888;SDS011;41413;52.770;6.892;2023-07-31T08:03:06;66.10;;;62.92;;
52888;SDS011;41413;52.770;6.892;2023-07-31T08:05:33;74.30;;;70.88;;
52888;SDS011;41413;52.770;6.892;2023-07-31T08:08:00;79.53;;;75.82;;
52888;SDS011;41413;52.770;6.892;2023-07-31T08:10:27;77.03;;;73.45;;
52888;SDS011;41413;52.770;6.892;2023-07-31T08:12:54;64.90;;;61.67;;
52888;SDS011;41413;52.770;6.892;2023-07-31T08:15:21;62.88;;;60.00;;
52888;SDS011;41413;52.770;6.892;2023-07-31T08:17:47;78.32;;;74.70;;
52888;SDS011;41413;52.770;6.892;2023-07-31T08:20:14;82.65;;;79.00;;
52888;SDS011;41413;52.770;6.892;2023-07-31T08:22:41;66.78;;;63.67;;
52888;SDS011;41413;52.770;6.892;2023-07-31T08:25:08;76.13;;;72.72;;
52888;SDS011;41413;52.770;6.892;2023-07-31T08:27:34;59.53;;;56.75;;
52888;SDS011;41413;52.770;6.892;2023-07-31T08:30:01;74.05;;;70.80;;
52888;SDS011;41413;52.770;6.892;2023-07-31T08:32:28;61.40;;;58.70;;
52888;SDS011;41413;52.770;6.892;2023-07-31T08:34:55;77.47;;;74.28;;
52888;SDS011;41413;52.770;6.892;2023-07-31T08:37:22;67.38;;;64.47;;
52888;SDS011;41413;52.770;6.892;2023-07-31T08:39:48;62.20;;;59.60;;
52888;SDS011;41413;52.770;6.892;2023-07-31T08:42:15;76.20;;;72.88;;
52888;SDS011;41413;52.770;6.892;2023-07-31T08:44:42;65.97;;;63.22;;
52888;SDS011;41413;52.770;6.892;2023-07-31T08:47:09;93.47;;;88.95;;
52888;SDS011;41413;52.770;6.892;2023-07-31T08:49:37;70.70;;;67.70;;
52888;SDS011;41413;52.770;6.892;2023-07-31T08:52:06;63.58;;;60.95;;
52888;SDS011;41413;52.770;6.892;2023-07-31T08:54:33;71.82;;;68.85;;
52888;SDS011;41413;52.770;6.892;2023-07-31T08:57:00;73.70;;;70.65;;
52888;SDS011;41413;52.770;6.892;2023-07-31T08:59:29;69.10;;;66.43;;
52888;SDS011;41413;52.770;6.892;2023-07-31T09:01:57;66.80;;;64.20;;
52888;SDS011;41413;52.770;6.892;2023-07-31T09:04:32;64.22;;;61.72;;
52888;SDS011;41413;52.770;6.892;2023-07-31T09:07:01;63.17;;;60.72;;
52888;SDS011;41413;52.770;6.892;2023-07-31T09:09:32;56.40;;;54.15;;
52888;SDS011;41413;52.770;6.892;2023-07-31T09:11:59;65.65;;;63.00;;
52888;SDS011;41413;52.770;6.892;2023-07-31T09:14:26;62.67;;;60.22;;
52888;SDS011;41413;52.770;6.892;2023-07-31T09:16:58;66.55;;;64.00;;
52888;SDS011;41413;52.770;6.892;2023-07-31T09:19:26;65.90;;;63.17;;
52888;SDS011;41413;52.770;6.892;2023-07-31T09:22:00;70.68;;;67.82;;
52888;SDS011;41413;52.770;6.892;2023-07-31T09:24:31;73.93;;;71.05;;
52888;SDS011;41413;52.770;6.892;2023-07-31T09:27:00;56.63;;;54.38;;
52888;SDS011;41413;52.770;6.892;2023-07-31T09:29:27;70.72;;;67.88;;
52888;SDS011;41413;52.770;6.892;2023-07-31T09:31:55;70.85;;;68.07;;
52888;SDS011;41413;52.770;6.892;2023-07-31T09:34:37;71.47;;;68.80;;
52888;SDS011;41413;52.770;6.892;2023-07-31T09:37:05;77.00;;;74.10;;
52888;SDS011;41413;52.770;6.892;2023-07-31T09:39:32;63.22;;;60.88;;
52888;SDS011;41413;52.770;6.892;2023-07-31T09:42:11;67.75;;;65.22;;
52888;SDS011;41413;52.770;6.892;2023-07-31T09:44:39;58.83;;;56.70;;
52888;SDS011;41413;52.770;6.892;2023-07-31T09:47:08;65.35;;;62.85;;
52888;SDS011;41413;52.770;6.892;2023-07-31T09:49:50;60.58;;;58.35;;
52888;SDS011;41413;52.770;6.892;2023-07-31T09:52:17;60.92;;;58.72;;
52888;SDS011;41413;52.770;6.892;2023-07-31T09:54:44;74.90;;;72.13;;
52888;SDS011;41413;52.770;6.892;2023-07-31T09:57:10;62.47;;;60.17;;
52888;SDS011;41413;52.770;6.892;2023-07-31T09:59:38;56.22;;;54.17;;
52888;SDS011;41413;52.770;6.892;2023-07-31T10:02:05;60.08;;;57.92;;
52888;SDS011;41413;52.770;6.892;2023-07-31T10:04:41;60.42;;;58.20;;
52888;SDS011;41413;52.770;6.892;2023-07-31T10:07:12;57.92;;;55.78;;
52888;SDS011;41413;52.770;6.892;2023-07-31T10:09:39;56.75;;;54.65;;
52888;SDS011;41413;52.770;6.892;2023-07-31T10:12:06;69.57;;;66.97;;
52888;SDS011;41413;52.770;6.892;2023-07-31T10:14:36;51.80;;;49.83;;
52888;SDS011;41413;52.770;6.892;2023-07-31T10:17:05;67.30;;;64.82;;
52888;SDS011;41413;52.770;6.892;2023-07-31T10:19:33;60.70;;;58.30;;
52888;SDS011;41413;52.770;6.892;2023-07-31T10:22:02;64.40;;;62.08;;
52888;SDS011;41413;52.770;6.892;2023-07-31T10:24:29;67.65;;;65.15;;
52888;SDS011;41413;52.770;6.892;2023-07-31T10:26:57;73.82;;;71.00;;
52888;SDS011;41413;52.770;6.892;2023-07-31T10:29:26;62.63;;;60.28;;
52888;SDS011;41413;52.770;6.892;2023-07-31T10:31:56;58.30;;;55.92;;
52888;SDS011;41413;52.770;6.892;2023-07-31T10:34:24;72.10;;;69.35;;
52888;SDS011;41413;52.770;6.892;2023-07-31T10:37:14;60.22;;;57.83;;
52888;SDS011;41413;52.770;6.892;2023-07-31T10:40:03;64.63;;;62.22;;
52888;SDS011;41413;52.770;6.892;2023-07-31T10:45:02;62.00;;;59.67;;
52888;SDS011;41413;52.770;6.892;2023-07-31T10:47:31;70.68;;;68.00;;
52888;SDS011;41413;52.770;6.892;2023-07-31T10:50:13;70.85;;;68.15;;
52888;SDS011;41413;52.770;6.892;2023-07-31T10:52:47;66.80;;;64.00;;
52888;SDS011;41413;52.770;6.892;2023-07-31T10:55:28;56.55;;;54.47;;
52888;SDS011;41413;52.770;6.892;2023-07-31T10:57:58;72.80;;;70.10;;
52888;SDS011;41413;52.770;6.892;2023-07-31T11:00:41;63.70;;;61.30;;
52888;SDS011;41413;52.770;6.892;2023-07-31T11:03:10;66.30;;;63.70;;
52888;SDS011;41413;52.770;6.892;2023-07-31T11:08:21;59.65;;;57.40;;
52888;SDS011;41413;52.770;6.892;2023-07-31T11:13:33;57.97;;;55.78;;
52888;SDS011;41413;52.770;6.892;2023-07-31T11:16:00;60.42;;;58.13;;
52888;SDS011;41413;52.770;6.892;2023-07-31T11:18:27;60.38;;;58.17;;
52888;SDS011;41413;52.770;6.892;2023-07-31T11:20:54;69.15;;;66.53;;
52888;SDS011;41413;52.770;6.892;2023-07-31T11:23:21;51.47;;;49.53;;
52888;SDS011;41413;52.770;6.892;2023-07-31T11:25:48;59.72;;;57.45;;
52888;SDS011;41413;52.770;6.892;2023-07-31T11:28:16;55.65;;;53.55;;
52888;SDS011;41413;52.770;6.892;2023-07-31T11:30:45;56.67;;;54.50;;
52888;SDS011;41413;52.770;6.892;2023-07-31T11:33:13;57.65;;;55.55;;
52888;SDS011;41413;52.770;6.892;2023-07-31T11:35:44;48.50;;;46.55;;
52888;SDS011;41413;52.770;6.892;2023-07-31T11:38:28;70.10;;;67.50;;
52888;SDS011;41413;52.770;6.892;2023-07-31T11:41:01;53.85;;;51.78;;
52888;SDS011;41413;52.770;6.892;2023-07-31T11:43:29;54.47;;;52.33;;
52888;SDS011;41413;52.770;6.892;2023-07-31T11:46:00;52.47;;;50.38;;
52888;SDS011;41413;52.770;6.892;2023-07-31T11:48:32;59.55;;;57.22;;
52888;SDS011;41413;52.770;6.892;2023-07-31T11:51:05;70.72;;;68.13;;
52888;SDS011;41413;52.770;6.892;2023-07-31T11:53:41;59.47;;;57.28;;
52888;SDS011;41413;52.770;6.892;2023-07-31T11:56:12;60.90;;;58.53;;
52888;SDS011;41413;52.770;6.892;2023-07-31T11:58:40;66.05;;;63.53;;
52888;SDS011;41413;52.770;6.892;2023-07-31T12:01:09;63.10;;;60.72;;
52888;SDS011;41413;52.770;6.892;2023-07-31T12:03:36;62.00;;;59.53;;
52888;SDS011;41413;52.770;6.892;2023-07-31T12:06:03;54.78;;;52.58;;
52888;SDS011;41413;52.770;6.892;2023-07-31T12:08:30;55.65;;;53.58;;
52888;SDS011;41413;52.770;6.892;2023-07-31T12:11:02;61.10;;;58.70;;
52888;SDS011;41413;52.770;6.892;2023-07-31T12:13:32;50.45;;;48.60;;
52888;SDS011;41413;52.770;6.892;2023-07-31T12:16:00;57.17;;;54.70;;
52888;SDS011;41413;52.770;6.892;2023-07-31T12:18:31;70.60;;;67.60;;
52888;SDS011;41413;52.770;6.892;2023-07-31T12:21:01;63.28;;;60.78;;
52888;SDS011;41413;52.770;6.892;2023-07-31T12:23:30;58.92;;;56.58;;
52888;SDS011;41413;52.770;6.892;2023-07-31T12:26:08;64.40;;;61.92;;
52888;SDS011;41413;52.770;6.892;2023-07-31T12:28:42;61.08;;;58.83;;
52888;SDS011;41413;52.770;6.892;2023-07-31T12:31:11;64.93;;;62.47;;
52888;SDS011;41413;52.770;6.892;2023-07-31T12:33:40;71.90;;;68.97;;
52888;SDS011;41413;52.770;6.892;2023-07-31T12:36:09;67.20;;;64.70;;
52888;SDS011;41413;52.770;6.892;2023-07-31T12:38:38;76.43;;;73.35;;
52888;SDS011;41413;52.770;6.892;2023-07-31T12:41:05;73.07;;;70.13;;
52888;SDS011;41413;52.770;6.892;2023-07-31T12:43:33;75.10;;;72.10;;
52888;SDS011;41413;52.770;6.892;2023-07-31T12:46:01;75.50;;;72.35;;
52888;SDS011;41413;52.770;6.892;2023-07-31T12:48:27;67.72;;;64.97;;
52888;SDS011;41413;52.770;6.892;2023-07-31T12:50:54;79.55;;;76.38;;
52888;SDS011;41413;52.770;6.892;2023-07-31T12:53:21;70.68;;;67.75;;
52888;SDS011;41413;52.770;6.892;2023-07-31T12:55:48;73.88;;;70.45;;
52888;SDS011;41413;52.770;6.892;2023-07-31T12:58:15;67.55;;;64.85;;
52888;SDS011;41413;52.770;6.892;2023-07-31T13:00:42;66.88;;;64.18;;
52888;SDS011;41413;52.770;6.892;2023-07-31T13:03:09;74.40;;;71.50;;
52888;SDS011;41413;52.770;6.892;2023-07-31T13:05:35;75.68;;;72.53;;
52888;SDS011;41413;52.770;6.892;2023-07-31T13:08:02;73.20;;;70.10;;
52888;SDS011;41413;52.770;6.892;2023-07-31T13:10:29;68.70;;;65.68;;
52888;SDS011;41413;52.770;6.892;2023-07-31T13:12:56;62.40;;;59.88;;
52888;SDS011;41413;52.770;6.892;2023-07-31T13:15:23;67.10;;;64.30;;
52888;SDS011;41413;52.770;6.892;2023-07-31T13:17:50;67.35;;;64.60;;
52888;SDS011;41413;52.770;6.892;2023-07-31T13:20:16;63.50;;;60.97;;
52888;SDS011;41413;52.770;6.892;2023-07-31T13:22:43;57.05;;;54.53;;
52888;SDS011;41413;52.770;6.892;2023-07-31T13:25:12;66.20;;;63.42;;
52888;SDS011;41413;52.770;6.892;2023-07-31T13:27:39;67.63;;;64.85;;
52888;SDS011;41413;52.770;6.892;2023-07-31T13:30:06;62.47;;;59.83;;
52888;SDS011;41413;52.770;6.892;2023-07-31T13:32:33;68.45;;;65.50;;
52888;SDS011;41413;52.770;6.892;2023-07-31T13:35:07;69.25;;;66.32;;
52888;SDS011;41413;52.770;6.892;2023-07-31T13:37:34;66.13;;;63.28;;
52888;SDS011;41413;52.770;6.892;2023-07-31T13:40:01;62.05;;;59.38;;
52888;SDS011;41413;52.770;6.892;2023-07-31T13:42:31;70.75;;;67.75;;
52888;SDS011;41413;52.770;6.892;2023-07-31T13:44:59;74.13;;;70.93;;
52888;SDS011;41413;52.770;6.892;2023-07-31T13:47:26;59.78;;;57.17;;
52888;SDS011;41413;52.770;6.892;2023-07-31T13:49:53;63.75;;;61.05;;
52888;SDS011;41413;52.770;6.892;2023-07-31T13:52:20;66.53;;;63.92;;
52888;SDS011;41413;52.770;6.892;2023-07-31T13:54:47;76.93;;;73.72;;
52888;SDS011;41413;52.770;6.892;2023-07-31T13:57:13;78.10;;;74.95;;
52888;SDS011;41413;52.770;6.892;2023-07-31T13:59:40;64.80;;;62.20;;
52888;SDS011;41413;52.770;6.892;2023-07-31T14:02:07;64.10;;;61.63;;
52888;SDS011;41413;52.770;6.892;2023-07-31T14:04:34;73.78;;;70.80;;
52888;SDS011;41413;52.770;6.892;2023-07-31T14:07:00;63.88;;;61.22;;
52888;SDS011;41413;52.770;6.892;2023-07-31T14:09:27;76.82;;;73.72;;
52888;SDS011;41413;52.770;6.892;2023-07-31T14:11:54;66.85;;;64.05;;
52888;SDS011;41413;52.770;6.892;2023-07-31T14:14:21;75.72;;;72.45;;
52888;SDS011;41413;52.770;6.892;2023-07-31T14:16:48;61.83;;;59.03;;
52888;SDS011;41413;52.770;6.892;2023-07-31T14:19:15;69.50;;;66.60;;
52888;SDS011;41413;52.770;6.892;2023-07-31T14:21:42;76.53;;;73.20;;
52888;SDS011;41413;52.770;6.892;2023-07-31T14:24:19;62.70;;;60.08;;
52888;SDS011;41413;52.770;6.892;2023-07-31T14:26:46;69.22;;;66.43;;
52888;SDS011;41413;52.770;6.892;2023-07-31T14:29:13;70.60;;;67.65;;
52888;SDS011;41413;52.770;6.892;2023-07-31T14:31:39;64.47;;;61.40;;
52888;SDS011;41413;52.770;6.892;2023-07-31T14:34:06;61.65;;;58.80;;
52888;SDS011;41413;52.770;6.892;2023-07-31T14:36:33;59.55;;;56.72;;
52888;SDS011;41413;52.770;6.892;2023-07-31T14:38:59;61.05;;;58.15;;